createdAt,value
2023-05-17T00:06:05.357Z,12.85
2023-05-17T00:14:28.378Z,12.81
2023-05-17T00:22:51.891Z,12.73
2023-05-17T00:31:14.797Z,12.73
2023-05-17T00:39:37.655Z,12.69
2023-05-17T00:48:01.320Z,12.56
2023-05-17T00:56:25.338Z,12.51
2023-05-17T01:04:49.473Z,12.52
2023-05-17T01:13:20.168Z,12.47
2023-05-17T01:21:56.920Z,12.55
2023-05-17T01:30:20.872Z,12.56
2023-05-17T01:38:43.759Z,12.47
2023-05-17T01:47:15.771Z,12.42
2023-05-17T01:55:48.717Z,12.34
2023-05-17T02:04:13.007Z,12.31
2023-05-17T02:12:35.929Z,12.40
2023-05-17T02:20:58.834Z,12.39
2023-05-17T02:29:21.785Z,12.37
2023-05-17T02:37:44.871Z,12.34
2023-05-17T02:46:08.964Z,12.21
2023-05-17T02:54:34.202Z,12.22
2023-05-17T03:02:57.320Z,12.18
2023-05-17T03:11:20.645Z,12.18
2023-05-17T03:19:43.673Z,12.20
2023-05-17T03:28:06.806Z,12.17
2023-05-17T03:36:30.024Z,12.15
2023-05-17T03:44:54.196Z,12.15
2023-05-17T03:53:17.200Z,12.10
2023-05-17T04:01:40.753Z,12.16
2023-05-17T04:10:05.736Z,12.12
2023-05-17T04:18:29.286Z,12.16
2023-05-17T04:26:52.389Z,12.14
2023-05-17T04:35:17.729Z,12.17
2023-05-17T04:43:42.285Z,12.19
2023-05-17T04:52:10.771Z,12.17
2023-05-17T05:00:35.284Z,12.14
2023-05-17T05:09:01.185Z,12.19
2023-05-17T05:17:24.373Z,12.24
2023-05-17T05:25:47.805Z,12.24
2023-05-17T05:34:11.027Z,12.23
2023-05-17T05:42:34.273Z,12.29
2023-05-17T05:50:57.410Z,12.31
2023-05-17T05:59:20.840Z,12.36
2023-05-17T06:07:44.027Z,12.39
2023-05-17T06:16:07.124Z,12.43
2023-05-17T06:24:29.972Z,12.41
2023-05-17T06:32:52.976Z,12.46
2023-05-17T06:41:15.844Z,12.44
2023-05-17T06:49:38.897Z,12.45
2023-05-17T06:58:01.872Z,12.48
2023-05-17T07:06:24.885Z,12.52
2023-05-17T07:14:47.869Z,12.55
2023-05-17T07:23:10.847Z,12.70
2023-05-17T07:31:34.844Z,12.75
2023-05-17T07:39:58.015Z,12.74
2023-05-17T07:48:21.064Z,12.83
2023-05-17T07:56:43.975Z,12.95
2023-05-17T08:05:08.478Z,13.20
2023-05-17T08:13:31.384Z,13.51
2023-05-17T08:21:54.360Z,13.68
2023-05-17T08:30:28.259Z,13.85
2023-05-17T08:38:53.127Z,13.82
2023-05-17T08:47:26.221Z,13.71
2023-05-17T08:55:51.586Z,13.47
2023-05-17T09:04:16.360Z,13.48
2023-05-17T09:12:39.452Z,13.63
2023-05-17T09:21:04.971Z,13.89
2023-05-17T09:29:32.490Z,13.91
2023-05-17T09:38:05.091Z,13.87
2023-05-17T09:46:29.205Z,13.77
2023-05-17T09:54:57.085Z,13.67
2023-05-17T10:03:20.294Z,13.52
2023-05-17T10:11:47.352Z,13.55
2023-05-17T10:20:11.504Z,13.54
2023-05-17T10:28:36.453Z,13.55
2023-05-17T10:37:00.532Z,13.57
2023-05-17T10:45:27.810Z,13.51
2023-05-17T10:54:02.758Z,13.57
2023-05-17T11:02:27.326Z,13.56
2023-05-17T11:11:17.397Z,13.45
2023-05-17T11:19:57.986Z,13.67
2023-05-17T11:28:22.374Z,13.92
2023-05-17T11:36:51.901Z,13.73
2023-05-17T11:45:14.795Z,13.55
2023-05-17T11:53:37.906Z,13.41
2023-05-17T12:02:00.902Z,13.23
2023-05-17T12:10:23.832Z,13.07
2023-05-17T12:18:51.803Z,12.83
2023-05-17T12:27:14.845Z,12.75
2023-05-17T12:35:38.256Z,12.62
2023-05-17T12:44:13.738Z,12.68
2023-05-17T12:52:40.685Z,12.87
2023-05-17T13:01:06.988Z,12.98
2023-05-17T13:09:32.277Z,12.80
2023-05-17T13:17:55.407Z,12.73
2023-05-17T13:26:19.024Z,12.93
2023-05-17T13:34:41.948Z,12.72
2023-05-17T13:43:04.933Z,12.51
2023-05-17T13:51:27.989Z,12.49
2023-05-17T13:59:50.865Z,12.72
2023-05-17T14:08:14.050Z,13.32
2023-05-17T14:16:40.601Z,13.44
2023-05-17T14:25:03.903Z,13.09
2023-05-17T14:33:28.279Z,12.58
2023-05-17T14:41:51.217Z,12.28
2023-05-17T14:50:16.344Z,12.13
2023-05-17T14:58:39.359Z,12.05
2023-05-17T15:07:02.394Z,11.94
2023-05-17T15:15:25.203Z,11.85
2023-05-17T15:23:50.061Z,11.78
2023-05-17T15:32:12.930Z,11.71
2023-05-17T15:40:35.827Z,11.63
2023-05-17T15:48:58.753Z,11.54
2023-05-17T15:57:21.582Z,11.60
2023-05-17T16:05:44.894Z,11.54
2023-05-17T16:14:09.373Z,11.51
2023-05-17T16:22:33.128Z,11.47
2023-05-17T16:30:56.301Z,11.51
2023-05-17T16:39:19.260Z,11.45
2023-05-17T16:47:42.384Z,11.40
2023-05-17T16:56:05.596Z,11.45
2023-05-17T17:04:28.572Z,11.40
2023-05-17T17:12:51.467Z,11.40
2023-05-17T17:21:14.691Z,11.45
2023-05-17T17:29:37.931Z,11.41
2023-05-17T17:38:03.077Z,11.35
2023-05-17T17:46:26.117Z,11.35
2023-05-17T17:54:49.567Z,11.28
2023-05-17T18:03:13.126Z,11.26
2023-05-17T18:11:36.484Z,11.21
2023-05-17T18:19:59.414Z,11.15
2023-05-17T18:28:33.891Z,11.11
2023-05-17T18:37:04.582Z,11.11
2023-05-17T18:45:28.414Z,11.06
2023-05-17T18:53:51.463Z,11.10
2023-05-17T19:02:14.360Z,11.12
2023-05-17T19:10:37.264Z,11.05
2023-05-17T19:19:00.310Z,11.08
2023-05-17T19:27:23.213Z,11.03
2023-05-17T19:35:46.641Z,10.94
2023-05-17T19:44:09.709Z,10.92
2023-05-17T19:52:32.605Z,10.84
2023-05-17T20:00:55.573Z,10.77
2023-05-17T20:09:20.687Z,10.67
2023-05-17T20:17:43.680Z,10.64
2023-05-17T20:26:06.594Z,10.63
2023-05-17T20:34:29.632Z,10.59
2023-05-17T20:42:53.468Z,10.54
2023-05-17T20:51:19.812Z,10.46
2023-05-17T20:59:42.854Z,10.46
2023-05-17T21:08:12.875Z,10.40
2023-05-17T21:16:35.902Z,10.32
2023-05-17T21:24:58.846Z,10.27
2023-05-17T21:33:21.879Z,10.20
2023-05-17T21:41:44.854Z,10.18
2023-05-17T21:50:08.317Z,10.07
2023-05-17T21:58:31.951Z,10.05
2023-05-17T22:06:56.312Z,9.97
2023-05-17T22:15:20.084Z,9.79
2023-05-17T22:23:43.362Z,9.53
2023-05-17T22:32:06.693Z,9.35
2023-05-17T22:40:29.938Z,9.15
2023-05-17T22:48:58.094Z,8.92
2023-05-17T22:57:21.066Z,8.80
2023-05-17T23:05:45.558Z,8.64
2023-05-17T23:14:08.426Z,8.60
2023-05-17T23:22:33.876Z,8.57
2023-05-17T23:31:01.395Z,8.56
2023-05-17T23:39:24.288Z,8.44
2023-05-17T23:47:47.665Z,8.32
2023-05-17T23:56:10.758Z,8.17
